createdAt,value
2019-01-15T00:02:09.015Z,9.13
2019-01-15T00:04:38.680Z,9.43
2019-01-15T00:07:08.445Z,8.35
2019-01-15T00:09:38.128Z,8.40
2019-01-15T00:12:08.166Z,10.13
2019-01-15T00:14:37.879Z,10.63
2019-01-15T00:17:07.638Z,7.57
2019-01-15T00:19:37.298Z,8.47
2019-01-15T00:22:06.983Z,6.73
2019-01-15T00:24:36.881Z,7.27
2019-01-15T00:27:06.551Z,8.27
2019-01-15T00:29:36.228Z,8.97
2019-01-15T00:32:05.975Z,9.30
2019-01-15T00:34:35.644Z,8.30
2019-01-15T00:37:05.491Z,9.63
2019-01-15T00:39:35.434Z,9.70
2019-01-15T00:42:05.598Z,8.00
2019-01-15T00:44:35.278Z,11.53
2019-01-15T00:47:05.240Z,11.08
2019-01-15T00:49:34.924Z,13.90
2019-01-15T00:52:05.167Z,8.85
2019-01-15T00:54:34.845Z,10.20
2019-01-15T00:57:05.448Z,8.90
2019-01-15T00:59:35.117Z,8.63
2019-01-15T01:02:05.575Z,14.20
2019-01-15T01:04:35.237Z,6.70
2019-01-15T01:07:05.439Z,7.63
2019-01-15T01:09:35.175Z,9.93
2019-01-15T01:12:05.554Z,10.40
2019-01-15T01:14:35.221Z,7.00
2019-01-15T01:17:05.492Z,7.10
2019-01-15T01:19:35.233Z,11.87
2019-01-15T01:22:05.474Z,9.57
2019-01-15T01:24:35.147Z,8.27
2019-01-15T01:27:05.678Z,8.63
2019-01-15T01:29:35.345Z,9.20
2019-01-15T01:32:05.577Z,10.37
2019-01-15T01:34:35.253Z,11.37
2019-01-15T01:37:07.432Z,8.83
2019-01-15T01:39:37.091Z,10.97
2019-01-15T01:42:06.839Z,9.83
2019-01-15T01:44:36.501Z,7.47
2019-01-15T01:47:06.166Z,6.10
2019-01-15T01:49:35.842Z,8.53
2019-01-15T01:52:05.593Z,8.67
2019-01-15T01:54:35.265Z,9.07
2019-01-15T01:57:05.223Z,11.90
2019-01-15T01:59:34.889Z,10.47
2019-01-15T02:02:04.784Z,9.77
2019-01-15T02:04:34.449Z,8.03
2019-01-15T02:07:04.293Z,10.83
2019-01-15T02:09:34.945Z,12.00
2019-01-15T02:12:05.072Z,9.37
2019-01-15T02:14:34.744Z,9.97
2019-01-15T02:17:04.555Z,7.60
2019-01-15T02:19:34.278Z,8.27
2019-01-15T02:22:04.486Z,8.97
2019-01-15T02:24:34.140Z,8.73
2019-01-15T02:27:06.489Z,7.87
2019-01-15T02:29:36.149Z,7.67
2019-01-15T02:32:06.064Z,8.97
2019-01-15T02:34:36.767Z,10.20
2019-01-15T02:37:06.592Z,7.90
2019-01-15T02:39:36.264Z,9.17
2019-01-15T02:42:06.009Z,6.07
2019-01-15T02:44:35.758Z,7.37
2019-01-15T02:47:05.530Z,7.90
2019-01-15T02:49:35.186Z,8.23
2019-01-15T02:52:05.442Z,7.55
2019-01-15T02:54:35.116Z,11.40
2019-01-15T02:57:05.841Z,8.00
2019-01-15T02:59:35.501Z,9.20
2019-01-15T03:02:05.841Z,7.30
2019-01-15T03:04:35.584Z,9.07
2019-01-15T03:07:05.943Z,7.05
2019-01-15T03:09:35.667Z,8.53
2019-01-15T03:12:05.428Z,8.67
2019-01-15T03:14:35.339Z,8.37
2019-01-15T03:17:05.279Z,12.30
2019-01-15T03:19:34.944Z,10.43
2019-01-15T03:22:04.704Z,9.53
2019-01-15T03:24:34.378Z,7.20
2019-01-15T03:27:04.187Z,11.53
2019-01-15T03:29:33.924Z,10.13
2019-01-15T03:32:03.670Z,8.07
2019-01-15T03:34:33.319Z,9.63
2019-01-15T03:37:03.071Z,11.97
2019-01-15T03:39:32.740Z,12.63
2019-01-15T03:42:02.579Z,8.43
2019-01-15T03:44:32.252Z,8.80
2019-01-15T03:47:02.167Z,9.25
2019-01-15T03:49:31.836Z,10.60
2019-01-15T03:52:01.530Z,8.90
2019-01-15T03:54:32.168Z,10.43
2019-01-15T03:57:01.852Z,7.70
2019-01-15T03:59:31.759Z,8.17
2019-01-15T04:02:01.449Z,8.27
2019-01-15T04:04:31.179Z,8.47
2019-01-15T04:07:00.924Z,7.17
2019-01-15T04:09:30.662Z,11.23
2019-01-15T04:12:00.322Z,8.30
2019-01-15T04:14:35.721Z,8.90
2019-01-15T04:17:05.548Z,9.63
2019-01-15T04:19:35.227Z,8.67
2019-01-15T04:22:05.289Z,10.67
2019-01-15T04:24:34.961Z,10.30
2019-01-15T04:27:05.139Z,9.57
2019-01-15T04:29:34.803Z,14.40
2019-01-15T04:32:05.260Z,13.40
2019-01-15T04:34:34.922Z,14.25
2019-01-15T04:37:05.577Z,12.43
2019-01-15T04:39:35.241Z,13.47
2019-01-15T04:42:05.226Z,13.00
2019-01-15T04:44:35.126Z,14.13
2019-01-15T04:47:05.333Z,11.45
2019-01-15T04:49:34.987Z,11.80
2019-01-15T04:52:05.509Z,13.53
2019-01-15T04:54:35.172Z,13.13
2019-01-15T04:57:05.228Z,11.83
2019-01-15T04:59:35.179Z,13.77
2019-01-15T05:02:05.311Z,12.88
2019-01-15T05:04:35.003Z,13.43
2019-01-15T05:07:05.871Z,11.45
2019-01-15T05:09:35.540Z,14.43
2019-01-15T05:12:05.359Z,13.93
2019-01-15T05:14:35.292Z,17.02
2019-01-15T05:17:05.748Z,14.50
2019-01-15T05:19:35.435Z,13.03
2019-01-15T05:22:05.374Z,14.47
2019-01-15T05:24:35.053Z,13.90
2019-01-15T05:27:05.374Z,14.33
2019-01-15T05:29:35.056Z,14.03
2019-01-15T05:32:05.199Z,10.97
2019-01-15T05:34:34.876Z,13.87
2019-01-15T05:37:05.346Z,15.13
2019-01-15T05:39:35.104Z,15.90
2019-01-15T05:42:05.261Z,16.40
2019-01-15T05:44:34.938Z,14.53
2019-01-15T05:47:05.481Z,18.27
2019-01-15T05:49:35.239Z,19.90
2019-01-15T05:52:05.781Z,12.78
2019-01-15T05:54:35.687Z,16.17
2019-01-15T05:57:05.594Z,17.63
2019-01-15T05:59:35.324Z,15.77
2019-01-15T06:02:05.584Z,18.30
2019-01-15T06:04:35.338Z,16.23
2019-01-15T06:07:05.646Z,16.23
2019-01-15T06:09:35.317Z,19.83
2019-01-15T06:12:05.669Z,16.50
2019-01-15T06:14:35.596Z,18.23
2019-01-15T06:17:05.422Z,23.13
2019-01-15T06:19:35.185Z,27.43
2019-01-15T06:22:05.437Z,24.47
2019-01-15T06:24:35.764Z,24.87
2019-01-15T06:27:05.659Z,20.93
2019-01-15T06:29:35.326Z,20.67
2019-01-15T06:32:05.638Z,23.02
2019-01-15T06:34:35.391Z,26.90
2019-01-15T06:39:57.905Z,22.60
2019-01-15T06:42:27.576Z,24.07
2019-01-15T06:44:57.270Z,27.67
2019-01-15T06:47:27.291Z,33.30
2019-01-15T06:49:57.116Z,31.27
2019-01-15T06:52:27.041Z,31.87
2019-01-15T06:54:57.037Z,34.23
2019-01-15T06:57:26.861Z,34.00
2019-01-15T06:59:56.778Z,28.97
2019-01-15T07:02:26.684Z,33.07
2019-01-15T07:04:56.626Z,35.50
2019-01-15T07:07:26.512Z,37.97
2019-01-15T07:09:56.194Z,40.63
2019-01-15T07:12:26.036Z,36.80
2019-01-15T07:14:55.945Z,37.70
2019-01-15T07:17:25.868Z,38.23
2019-01-15T07:19:55.788Z,40.07
2019-01-15T07:22:27.544Z,41.07
2019-01-15T07:24:57.284Z,39.67
2019-01-15T07:27:27.988Z,38.33
2019-01-15T07:30:06.431Z,38.47
2019-01-15T07:32:36.488Z,37.53
2019-01-15T07:35:06.681Z,36.47
2019-01-15T07:37:36.562Z,46.50
2019-01-15T07:40:07.308Z,46.40
2019-01-15T07:42:37.365Z,40.73
2019-01-15T07:45:09.045Z,38.58
2019-01-15T07:47:38.795Z,42.77
2019-01-15T07:50:11.863Z,38.43
2019-01-15T07:52:41.698Z,42.55
2019-01-15T07:55:12.235Z,46.87
2019-01-15T07:57:42.061Z,41.97
2019-01-15T08:00:14.886Z,44.70
2019-01-15T08:02:44.877Z,41.97
2019-01-15T08:05:15.683Z,44.47
2019-01-15T08:07:45.725Z,42.97
2019-01-15T08:10:16.409Z,50.35
2019-01-15T08:12:46.556Z,47.50
2019-01-15T08:15:18.871Z,47.87
2019-01-15T08:17:48.767Z,45.77
2019-01-15T08:20:18.742Z,43.23
2019-01-15T08:22:48.585Z,50.30
2019-01-15T08:25:18.424Z,45.87
2019-01-15T08:27:48.342Z,39.23
2019-01-15T08:30:20.697Z,43.28
2019-01-15T08:32:50.366Z,47.20
2019-01-15T08:35:20.332Z,38.90
2019-01-15T08:37:50.160Z,48.80
2019-01-15T08:40:20.882Z,46.40
2019-01-15T08:42:50.598Z,45.07
2019-01-15T08:45:20.652Z,42.97
2019-01-15T08:47:57.130Z,47.00
2019-01-15T08:50:27.494Z,41.83
2019-01-15T08:52:57.312Z,46.80
2019-01-15T08:55:27.128Z,40.80
2019-01-15T08:57:56.886Z,40.83
2019-01-15T09:00:26.811Z,37.73
2019-01-15T09:02:57.574Z,40.77
2019-01-15T09:05:30.554Z,35.57
2019-01-15T09:08:00.255Z,36.07
2019-01-15T09:10:30.076Z,30.97
2019-01-15T09:12:59.993Z,35.30
2019-01-15T09:15:29.750Z,34.93
2019-01-15T09:17:59.434Z,30.03
2019-01-15T09:20:29.128Z,39.30
2019-01-15T09:23:00.031Z,31.63
2019-01-15T09:25:29.865Z,30.57
2019-01-15T09:27:59.802Z,30.10
2019-01-15T09:30:29.620Z,31.83
2019-01-15T09:32:59.301Z,32.63
2019-01-15T09:35:29.291Z,29.27
2019-01-15T09:37:59.537Z,25.43
2019-01-15T09:40:30.278Z,26.47
2019-01-15T09:43:00.199Z,27.70
2019-01-15T09:45:30.108Z,26.07
2019-01-15T09:48:03.674Z,22.97
2019-01-15T09:50:33.515Z,21.43
2019-01-15T09:53:04.231Z,19.93
2019-01-15T09:55:35.315Z,20.10
2019-01-15T09:58:06.442Z,22.60
2019-01-15T10:00:36.431Z,27.77
2019-01-15T10:03:06.413Z,21.83
2019-01-15T10:05:36.255Z,19.03
2019-01-15T10:08:06.169Z,17.43
2019-01-15T10:10:36.233Z,16.30
2019-01-15T10:13:06.305Z,19.33
2019-01-15T10:15:41.829Z,19.27
2019-01-15T10:18:12.213Z,17.23
2019-01-15T10:20:42.417Z,17.63
2019-01-15T10:23:13.333Z,20.57
2019-01-15T10:25:45.331Z,17.50
2019-01-15T10:28:15.497Z,16.53
2019-01-15T10:31:24.783Z,12.93
2019-01-15T10:34:02.620Z,16.20
2019-01-15T10:36:31.099Z,16.30
2019-01-15T10:39:00.969Z,17.00
2019-01-15T10:41:32.713Z,15.27
2019-01-15T10:44:02.640Z,19.30
2019-01-15T10:46:32.381Z,17.07
2019-01-15T10:49:02.157Z,16.77
2019-01-15T10:51:31.839Z,13.23
2019-01-15T10:54:01.696Z,14.53
2019-01-15T10:56:31.760Z,14.23
2019-01-15T10:59:01.498Z,12.60
2019-01-15T11:01:32.343Z,14.80
2019-01-15T11:04:02.268Z,12.07
2019-01-15T11:06:32.236Z,15.37
2019-01-15T11:09:02.115Z,14.50
2019-01-15T11:11:33.894Z,13.90
2019-01-15T11:14:04.083Z,13.90
2019-01-15T11:16:34.016Z,12.17
2019-01-15T11:19:03.969Z,15.47
2019-01-15T11:21:33.800Z,16.23
2019-01-15T11:24:03.780Z,13.00
2019-01-15T11:26:33.634Z,13.77
2019-01-15T11:29:03.646Z,18.07
2019-01-15T11:31:33.458Z,16.83
2019-01-15T11:34:05.417Z,14.93
2019-01-15T11:36:35.130Z,21.50
2019-01-15T11:39:09.383Z,15.68
2019-01-15T11:41:39.445Z,14.47
2019-01-15T11:44:09.263Z,13.10
2019-01-15T11:46:39.017Z,17.27
2019-01-15T11:49:08.706Z,14.53
2019-01-15T11:51:38.608Z,16.13
2019-01-15T11:54:08.435Z,17.47
2019-01-15T11:56:38.212Z,18.10
2019-01-15T11:59:08.122Z,15.47
2019-01-15T12:01:44.280Z,18.93
2019-01-15T12:04:39.086Z,17.90
2019-01-15T12:07:45.732Z,17.00
2019-01-15T12:10:30.188Z,17.03
2019-01-15T12:13:17.560Z,17.77
2019-01-15T12:16:06.347Z,17.00
2019-01-15T12:18:53.458Z,15.77
2019-01-15T12:21:48.469Z,15.60
2019-01-15T12:24:35.563Z,23.92
2019-01-15T12:27:30.317Z,17.27
2019-01-15T12:30:25.025Z,14.90
2019-01-15T12:33:12.125Z,13.87
2019-01-15T12:36:07.266Z,16.47
2019-01-15T12:39:05.068Z,16.10
2019-01-15T12:41:53.696Z,18.03
2019-01-15T12:44:40.006Z,18.05
2019-01-15T12:47:28.415Z,14.67
2019-01-15T12:50:23.306Z,15.23
2019-01-15T12:53:14.419Z,15.43
2019-01-15T12:56:06.274Z,17.63
2019-01-15T12:59:03.967Z,15.70
2019-01-15T13:01:50.430Z,18.80
2019-01-15T13:04:45.938Z,21.45
2019-01-15T13:07:29.192Z,15.57
2019-01-15T13:10:11.558Z,19.97
2019-01-15T13:13:01.077Z,17.03
2019-01-15T13:15:59.028Z,18.47
2019-01-15T13:18:47.803Z,15.43
2019-01-15T13:21:36.503Z,20.90
2019-01-15T13:24:25.083Z,13.73
2019-01-15T13:27:05.249Z,15.13
2019-01-15T13:29:52.590Z,18.43
2019-01-15T13:32:33.819Z,17.07
2019-01-15T13:35:21.934Z,17.10
2019-01-15T13:38:01.247Z,19.10
2019-01-15T13:40:43.724Z,13.13
2019-01-15T13:43:35.210Z,17.37
2019-01-15T13:46:23.102Z,15.85
2019-01-15T13:49:23.955Z,17.07
2019-01-15T13:52:09.001Z,17.10
2019-01-15T13:55:12.830Z,14.53
2019-01-15T14:01:00.949Z,14.57
2019-01-15T14:03:49.557Z,12.57
2019-01-15T14:06:30.726Z,13.03
2019-01-15T14:09:17.827Z,15.83
2019-01-15T14:12:05.345Z,13.57
2019-01-15T14:14:53.055Z,15.43
2019-01-15T14:17:38.375Z,16.57
2019-01-15T14:20:24.100Z,12.13
2019-01-15T14:23:12.438Z,11.30
2019-01-15T14:26:10.230Z,15.50
2019-01-15T14:28:56.173Z,12.53
2019-01-15T14:31:42.650Z,11.20
2019-01-15T14:34:27.576Z,12.43
2019-01-15T14:37:19.416Z,12.07
2019-01-15T14:40:17.401Z,16.60
2019-01-15T14:43:09.241Z,10.63
2019-01-15T14:46:00.225Z,9.07
2019-01-15T14:48:55.895Z,12.33
2019-01-15T14:51:40.771Z,14.10
2019-01-15T14:54:41.493Z,13.97
2019-01-15T14:57:17.480Z,11.80
2019-01-15T15:00:15.064Z,8.43
2019-01-15T15:11:09.609Z,9.13
2019-01-15T15:14:01.543Z,10.37
2019-01-15T15:16:41.343Z,11.80
2019-01-15T15:19:29.495Z,8.47
2019-01-15T15:22:16.887Z,10.63
2019-01-15T15:25:04.484Z,12.00
2019-01-15T15:28:02.380Z,10.07
2019-01-15T15:30:49.449Z,10.97
2019-01-15T15:33:30.655Z,9.23
2019-01-15T15:36:18.971Z,9.10
2019-01-15T15:39:10.113Z,14.50
2019-01-15T15:41:58.737Z,11.30
2019-01-15T15:44:46.759Z,8.93
2019-01-15T15:47:41.856Z,9.37
2019-01-15T15:50:34.308Z,9.80
2019-01-15T15:53:19.460Z,11.23
2019-01-15T15:56:00.166Z,8.47
2019-01-15T15:59:00.849Z,14.73
2019-01-15T16:01:47.902Z,10.30
2019-01-15T16:04:35.234Z,9.95
2019-01-15T16:07:28.938Z,13.47
2019-01-15T16:10:29.854Z,10.17
2019-01-15T16:13:18.681Z,10.73
2019-01-15T16:16:07.152Z,12.63
2019-01-15T16:18:54.328Z,12.93
2019-01-15T16:21:41.101Z,13.20
2019-01-15T16:24:45.220Z,12.53
2019-01-15T16:27:52.739Z,12.97
2019-01-15T16:30:52.891Z,11.97
2019-01-15T16:33:44.685Z,16.40
2019-01-15T16:36:22.517Z,11.43
2019-01-15T16:39:00.889Z,14.77
2019-01-15T16:41:41.909Z,12.83
2019-01-15T16:44:34.096Z,13.05
2019-01-15T16:47:13.988Z,17.27
2019-01-15T16:50:11.897Z,13.80
2019-01-15T16:53:18.278Z,11.57
2019-01-15T16:56:49.420Z,13.07
2019-01-15T17:00:07.378Z,15.50
2019-01-15T17:03:20.303Z,17.90
2019-01-15T17:06:03.118Z,13.77
2019-01-15T17:08:55.720Z,15.00
2019-01-15T17:11:33.900Z,14.90
2019-01-15T17:14:29.144Z,13.20
2019-01-15T17:20:20.401Z,16.93
2019-01-15T17:23:07.420Z,12.63
2019-01-15T17:25:48.781Z,16.27
2019-01-15T17:28:38.138Z,16.13
2019-01-15T17:31:21.765Z,12.97
2019-01-15T17:34:09.013Z,15.60
2019-01-15T17:36:58.021Z,12.23
2019-01-15T17:39:45.919Z,12.60
2019-01-15T17:42:36.552Z,14.93
2019-01-15T17:45:26.685Z,15.17
2019-01-15T17:48:08.457Z,14.23
2019-01-15T17:50:57.298Z,18.57
2019-01-15T17:53:53.924Z,16.33
2019-01-15T17:56:42.901Z,17.27
2019-01-15T17:59:30.266Z,19.50
2019-01-15T18:02:26.633Z,14.67
2019-01-15T18:05:14.285Z,15.00
2019-01-15T18:08:02.084Z,19.27
2019-01-15T18:10:44.962Z,19.50
2019-01-15T18:13:29.342Z,16.70
2019-01-15T18:16:19.503Z,16.43
2019-01-15T18:19:11.571Z,16.40
2019-01-15T18:21:53.368Z,18.70
2019-01-15T18:24:39.246Z,23.50
2019-01-15T18:27:22.737Z,18.80
2019-01-15T18:30:26.924Z,20.37
2019-01-15T18:33:33.470Z,22.17
2019-01-15T18:36:24.029Z,16.57
2019-01-15T18:39:15.782Z,25.60
2019-01-15T18:42:03.329Z,21.57
2019-01-15T18:45:04.040Z,21.10
2019-01-15T18:47:56.943Z,22.93
2019-01-15T18:50:44.344Z,22.40
2019-01-15T18:53:31.697Z,20.10
2019-01-15T18:56:32.325Z,20.90
2019-01-15T18:59:33.149Z,20.23
2019-01-15T19:02:14.069Z,20.33
2019-01-15T19:05:02.790Z,20.43
2019-01-15T19:07:54.754Z,23.93
2019-01-15T19:10:39.062Z,22.93
2019-01-15T19:13:31.763Z,22.07
2019-01-15T19:16:26.664Z,21.13
2019-01-15T19:19:08.006Z,20.67
2019-01-15T19:21:55.559Z,24.10
2019-01-15T19:24:44.634Z,17.80
2019-01-15T19:27:28.152Z,24.43
2019-01-15T19:30:17.158Z,17.57
2019-01-15T19:33:09.730Z,19.23
2019-01-15T19:35:57.346Z,19.53
2019-01-15T19:38:54.533Z,21.83
2019-01-15T19:41:50.050Z,21.17
2019-01-15T19:44:37.668Z,22.37
2019-01-15T19:47:36.079Z,25.47
2019-01-15T19:50:32.892Z,18.20
2019-01-15T19:53:20.407Z,22.43
2019-01-15T19:56:00.075Z,22.53
2019-01-15T19:58:53.942Z,16.87
2019-01-15T20:01:42.372Z,18.07
2019-01-15T20:04:44.629Z,22.00
2019-01-15T20:07:33.495Z,18.43
2019-01-15T20:10:21.037Z,22.70
2019-01-15T20:16:39.359Z,20.70
2019-01-15T20:19:26.534Z,18.30
2019-01-15T20:22:14.807Z,20.30
2019-01-15T20:24:59.863Z,18.70
2019-01-15T20:27:39.898Z,29.23
2019-01-15T20:30:22.978Z,20.60
2019-01-15T20:33:08.955Z,23.07
2019-01-15T20:35:56.705Z,21.70
2019-01-15T20:38:51.835Z,21.90
2019-01-15T20:41:46.388Z,19.42
2019-01-15T20:44:46.580Z,23.53
2019-01-15T20:47:30.266Z,18.80
2019-01-15T20:50:31.546Z,21.97
2019-01-15T20:53:20.392Z,19.30
2019-01-15T20:56:09.353Z,22.03
2019-01-15T20:59:02.381Z,22.07
2019-01-15T21:02:00.177Z,22.33
2019-01-15T21:04:48.171Z,22.43
2019-01-15T21:13:35.176Z,23.73
2019-01-15T21:16:24.844Z,21.42
2019-01-15T21:19:12.249Z,20.63
2019-01-15T21:21:52.536Z,22.10
2019-01-15T21:24:42.044Z,21.90
2019-01-15T21:27:31.859Z,25.75
2019-01-15T21:30:39.739Z,22.07
2019-01-15T21:33:28.531Z,27.40
2019-01-15T21:39:11.066Z,25.70
2019-01-15T21:41:58.766Z,25.27
2019-01-15T21:44:39.426Z,24.57
2019-01-15T21:47:28.148Z,25.03
2019-01-15T21:50:20.560Z,24.20
2019-01-15T21:53:21.521Z,26.00
2019-01-15T21:56:06.072Z,25.83
2019-01-15T21:58:48.001Z,21.53
2019-01-15T22:01:35.552Z,20.90
2019-01-15T22:04:27.549Z,22.57
2019-01-15T22:07:22.974Z,25.27
2019-01-15T22:10:07.277Z,21.77
2019-01-15T22:12:48.606Z,28.77
2019-01-15T22:15:30.441Z,23.07
2019-01-15T22:18:11.702Z,26.67
2019-01-15T22:20:59.368Z,27.10
2019-01-15T22:23:47.017Z,25.10
2019-01-15T22:26:39.127Z,21.57
2019-01-15T22:29:28.224Z,26.70
2019-01-15T22:32:07.220Z,23.13
2019-01-15T22:35:06.964Z,21.43
2019-01-15T22:38:02.190Z,20.67
2019-01-15T22:40:48.996Z,19.73
2019-01-15T22:43:28.561Z,18.67
2019-01-15T22:46:17.544Z,21.13
2019-01-15T22:49:05.933Z,21.73
2019-01-15T22:51:53.378Z,19.90
2019-01-15T22:54:48.281Z,20.33
2019-01-15T22:57:46.034Z,21.37
2019-01-15T23:00:45.839Z,20.27
2019-01-15T23:03:35.187Z,18.43
2019-01-15T23:06:24.432Z,18.80
2019-01-15T23:09:02.514Z,21.13
2019-01-15T23:11:52.925Z,21.60
2019-01-15T23:14:40.534Z,23.07
2019-01-15T23:17:19.693Z,20.15
2019-01-15T23:20:07.212Z,17.10
2019-01-15T23:23:08.326Z,21.20
2019-01-15T23:25:55.452Z,21.17
2019-01-15T23:28:34.098Z,20.83
2019-01-15T23:31:40.942Z,19.07
2019-01-15T23:34:28.499Z,18.33
2019-01-15T23:37:16.020Z,18.57
2019-01-15T23:40:06.092Z,17.47
2019-01-15T23:43:00.650Z,19.60
2019-01-15T23:45:49.742Z,19.90
2019-01-15T23:48:38.445Z,17.67
2019-01-15T23:51:23.578Z,17.77
2019-01-15T23:54:20.202Z,18.37
2019-01-15T23:56:58.289Z,17.37
2019-01-15T23:59:45.780Z,18.27
